sensor_id;sensor_type;location;lat;lon;timestamp;P1;durP1;ratioP1;P2;durP2;ratioP2
59756;SDS011;45631;51.962;5.974;2024-02-21T00:00:15;29.15;;;13.00;;
59756;SDS011;45631;51.962;5.974;2024-02-21T00:02:45;30.48;;;13.93;;
59756;SDS011;45631;51.962;5.974;2024-02-21T00:05:13;28.90;;;12.27;;
59756;SDS011;45631;51.962;5.974;2024-02-21T00:07:42;29.30;;;12.93;;
59756;SDS011;45631;51.962;5.974;2024-02-21T00:10:11;31.00;;;12.88;;
59756;SDS011;45631;51.962;5.974;2024-02-21T00:12:39;25.95;;;13.40;;
59756;SDS011;45631;51.962;5.974;2024-02-21T00:15:07;26.55;;;13.30;;
59756;SDS011;45631;51.962;5.974;2024-02-21T00:17:36;24.42;;;12.98;;
59756;SDS011;45631;51.962;5.974;2024-02-21T00:20:04;26.90;;;12.60;;
59756;SDS011;45631;51.962;5.974;2024-02-21T00:22:33;28.58;;;13.00;;
59756;SDS011;45631;51.962;5.974;2024-02-21T00:25:03;27.35;;;12.98;;
59756;SDS011;45631;51.962;5.974;2024-02-21T00:27:31;24.92;;;12.52;;
59756;SDS011;45631;51.962;5.974;2024-02-21T00:30:00;25.83;;;12.90;;
59756;SDS011;45631;51.962;5.974;2024-02-21T00:32:29;25.27;;;13.68;;
59756;SDS011;45631;51.962;5.974;2024-02-21T00:35:00;24.90;;;13.00;;
59756;SDS011;45631;51.962;5.974;2024-02-21T00:37:29;28.67;;;13.25;;
59756;SDS011;45631;51.962;5.974;2024-02-21T00:39:57;24.27;;;12.23;;
59756;SDS011;45631;51.962;5.974;2024-02-21T00:42:26;24.42;;;12.65;;
59756;SDS011;45631;51.962;5.974;2024-02-21T00:44:54;26.48;;;12.25;;
59756;SDS011;45631;51.962;5.974;2024-02-21T00:47:23;23.65;;;13.68;;
59756;SDS011;45631;51.962;5.974;2024-02-21T00:49:51;31.50;;;13.23;;
59756;SDS011;45631;51.962;5.974;2024-02-21T00:52:19;28.75;;;13.25;;
59756;SDS011;45631;51.962;5.974;2024-02-21T00:54:47;27.10;;;12.68;;
59756;SDS011;45631;51.962;5.974;2024-02-21T00:59:49;23.10;;;12.50;;
59756;SDS011;45631;51.962;5.974;2024-02-21T01:02:17;21.35;;;11.75;;
59756;SDS011;45631;51.962;5.974;2024-02-21T01:04:46;22.55;;;12.20;;
59756;SDS011;45631;51.962;5.974;2024-02-21T01:07:14;26.85;;;12.75;;
59756;SDS011;45631;51.962;5.974;2024-02-21T01:09:42;26.52;;;12.35;;
59756;SDS011;45631;51.962;5.974;2024-02-21T01:12:10;23.33;;;12.13;;
59756;SDS011;45631;51.962;5.974;2024-02-21T01:14:39;23.92;;;11.70;;
59756;SDS011;45631;51.962;5.974;2024-02-21T01:17:08;22.50;;;11.90;;
59756;SDS011;45631;51.962;5.974;2024-02-21T01:19:37;24.35;;;12.38;;
59756;SDS011;45631;51.962;5.974;2024-02-21T01:22:05;26.65;;;12.10;;
59756;SDS011;45631;51.962;5.974;2024-02-21T01:24:33;24.80;;;12.00;;
59756;SDS011;45631;51.962;5.974;2024-02-21T01:27:01;19.63;;;11.15;;
59756;SDS011;45631;51.962;5.974;2024-02-21T01:29:29;24.00;;;11.13;;
59756;SDS011;45631;51.962;5.974;2024-02-21T01:31:57;24.98;;;12.10;;
59756;SDS011;45631;51.962;5.974;2024-02-21T01:34:27;21.67;;;12.45;;
59756;SDS011;45631;51.962;5.974;2024-02-21T01:36:58;22.67;;;10.75;;
59756;SDS011;45631;51.962;5.974;2024-02-21T01:41:59;19.70;;;11.05;;
59756;SDS011;45631;51.962;5.974;2024-02-21T01:44:27;26.45;;;11.20;;
59756;SDS011;45631;51.962;5.974;2024-02-21T01:46:55;24.13;;;11.43;;
59756;SDS011;45631;51.962;5.974;2024-02-21T01:49:23;23.35;;;11.40;;
59756;SDS011;45631;51.962;5.974;2024-02-21T01:51:54;27.42;;;11.07;;
59756;SDS011;45631;51.962;5.974;2024-02-21T01:54:23;21.60;;;11.75;;
59756;SDS011;45631;51.962;5.974;2024-02-21T01:56:55;26.60;;;12.40;;
59756;SDS011;45631;51.962;5.974;2024-02-21T01:59:23;20.35;;;10.98;;
59756;SDS011;45631;51.962;5.974;2024-02-21T02:01:52;23.58;;;11.07;;
59756;SDS011;45631;51.962;5.974;2024-02-21T02:04:23;27.45;;;11.52;;
59756;SDS011;45631;51.962;5.974;2024-02-21T02:06:55;20.40;;;11.93;;
59756;SDS011;45631;51.962;5.974;2024-02-21T02:09:23;26.55;;;11.40;;
59756;SDS011;45631;51.962;5.974;2024-02-21T02:11:52;19.95;;;11.68;;
59756;SDS011;45631;51.962;5.974;2024-02-21T02:14:20;23.35;;;11.10;;
59756;SDS011;45631;51.962;5.974;2024-02-21T02:16:48;28.45;;;11.82;;
59756;SDS011;45631;51.962;5.974;2024-02-21T02:19:16;18.17;;;10.70;;
59756;SDS011;45631;51.962;5.974;2024-02-21T02:21:46;19.58;;;10.90;;
59756;SDS011;45631;51.962;5.974;2024-02-21T02:24:21;23.58;;;10.80;;
59756;SDS011;45631;51.962;5.974;2024-02-21T02:26:51;21.63;;;11.43;;
59756;SDS011;45631;51.962;5.974;2024-02-21T02:29:19;23.38;;;10.57;;
59756;SDS011;45631;51.962;5.974;2024-02-21T02:31:48;23.88;;;12.32;;
59756;SDS011;45631;51.962;5.974;2024-02-21T02:34:17;26.85;;;12.73;;
59756;SDS011;45631;51.962;5.974;2024-02-21T02:36:46;23.50;;;11.80;;
59756;SDS011;45631;51.962;5.974;2024-02-21T02:39:15;20.85;;;11.93;;
59756;SDS011;45631;51.962;5.974;2024-02-21T02:41:45;20.70;;;11.50;;
59756;SDS011;45631;51.962;5.974;2024-02-21T02:44:16;27.85;;;12.15;;
59756;SDS011;45631;51.962;5.974;2024-02-21T02:46:44;25.42;;;12.65;;
59756;SDS011;45631;51.962;5.974;2024-02-21T02:49:13;21.95;;;12.68;;
59756;SDS011;45631;51.962;5.974;2024-02-21T02:51:41;23.77;;;12.27;;
59756;SDS011;45631;51.962;5.974;2024-02-21T02:54:12;24.20;;;11.90;;
59756;SDS011;45631;51.962;5.974;2024-02-21T02:56:40;24.50;;;11.70;;
59756;SDS011;45631;51.962;5.974;2024-02-21T02:59:10;24.13;;;11.18;;
59756;SDS011;45631;51.962;5.974;2024-02-21T03:01:38;21.98;;;11.73;;
59756;SDS011;45631;51.962;5.974;2024-02-21T03:04:06;24.48;;;11.20;;
59756;SDS011;45631;51.962;5.974;2024-02-21T03:06:37;22.50;;;10.88;;
59756;SDS011;45631;51.962;5.974;2024-02-21T03:09:05;21.45;;;10.50;;
59756;SDS011;45631;51.962;5.974;2024-02-21T03:11:35;22.17;;;11.90;;
59756;SDS011;45631;51.962;5.974;2024-02-21T03:14:07;19.45;;;10.63;;
59756;SDS011;45631;51.962;5.974;2024-02-21T03:16:37;24.02;;;11.02;;
59756;SDS011;45631;51.962;5.974;2024-02-21T03:19:05;23.65;;;11.82;;
59756;SDS011;45631;51.962;5.974;2024-02-21T03:21:33;20.17;;;9.68;;
59756;SDS011;45631;51.962;5.974;2024-02-21T03:24:01;23.75;;;10.35;;
59756;SDS011;45631;51.962;5.974;2024-02-21T03:26:30;22.73;;;10.35;;
59756;SDS011;45631;51.962;5.974;2024-02-21T03:28:58;17.10;;;10.35;;
59756;SDS011;45631;51.962;5.974;2024-02-21T03:31:27;22.02;;;10.07;;
59756;SDS011;45631;51.962;5.974;2024-02-21T03:33:59;20.70;;;10.60;;
59756;SDS011;45631;51.962;5.974;2024-02-21T03:36:27;20.58;;;10.57;;
59756;SDS011;45631;51.962;5.974;2024-02-21T03:38:55;24.35;;;9.82;;
59756;SDS011;45631;51.962;5.974;2024-02-21T03:41:23;20.50;;;9.60;;
59756;SDS011;45631;51.962;5.974;2024-02-21T03:43:52;21.45;;;9.55;;
59756;SDS011;45631;51.962;5.974;2024-02-21T03:46:23;18.60;;;9.23;;
59756;SDS011;45631;51.962;5.974;2024-02-21T03:48:52;18.40;;;9.00;;
59756;SDS011;45631;51.962;5.974;2024-02-21T03:51:22;16.65;;;8.50;;
59756;SDS011;45631;51.962;5.974;2024-02-21T03:53:50;20.27;;;9.13;;
59756;SDS011;45631;51.962;5.974;2024-02-21T03:56:18;18.42;;;8.18;;
59756;SDS011;45631;51.962;5.974;2024-02-21T03:58:49;16.05;;;8.02;;
59756;SDS011;45631;51.962;5.974;2024-02-21T04:01:18;16.77;;;8.70;;
59756;SDS011;45631;51.962;5.974;2024-02-21T04:03:47;19.25;;;8.18;;
59756;SDS011;45631;51.962;5.974;2024-02-21T04:06:15;16.58;;;8.25;;
59756;SDS011;45631;51.962;5.974;2024-02-21T04:08:45;19.10;;;8.05;;
59756;SDS011;45631;51.962;5.974;2024-02-21T04:11:13;16.65;;;8.85;;
59756;SDS011;45631;51.962;5.974;2024-02-21T04:13:41;17.27;;;7.40;;
59756;SDS011;45631;51.962;5.974;2024-02-21T04:16:10;17.25;;;8.13;;
59756;SDS011;45631;51.962;5.974;2024-02-21T04:18:39;18.65;;;7.85;;
59756;SDS011;45631;51.962;5.974;2024-02-21T04:21:07;22.00;;;7.45;;
59756;SDS011;45631;51.962;5.974;2024-02-21T04:23:37;18.60;;;7.47;;
59756;SDS011;45631;51.962;5.974;2024-02-21T04:26:06;15.25;;;7.38;;
59756;SDS011;45631;51.962;5.974;2024-02-21T04:28:34;13.95;;;6.93;;
59756;SDS011;45631;51.962;5.974;2024-02-21T04:31:03;16.45;;;7.65;;
59756;SDS011;45631;51.962;5.974;2024-02-21T04:33:32;15.52;;;7.50;;
59756;SDS011;45631;51.962;5.974;2024-02-21T04:36:00;15.63;;;7.05;;
59756;SDS011;45631;51.962;5.974;2024-02-21T04:38:28;15.18;;;7.22;;
59756;SDS011;45631;51.962;5.974;2024-02-21T04:40:56;17.92;;;7.82;;
59756;SDS011;45631;51.962;5.974;2024-02-21T04:43:27;19.35;;;6.82;;
59756;SDS011;45631;51.962;5.974;2024-02-21T04:45:55;18.25;;;7.30;;
59756;SDS011;45631;51.962;5.974;2024-02-21T04:48:23;14.68;;;6.97;;
59756;SDS011;45631;51.962;5.974;2024-02-21T04:50:51;16.95;;;7.38;;
59756;SDS011;45631;51.962;5.974;2024-02-21T04:53:19;14.13;;;7.65;;
59756;SDS011;45631;51.962;5.974;2024-02-21T04:55:47;17.85;;;6.60;;
59756;SDS011;45631;51.962;5.974;2024-02-21T04:58:16;16.30;;;7.25;;
59756;SDS011;45631;51.962;5.974;2024-02-21T05:00:45;15.80;;;7.05;;
59756;SDS011;45631;51.962;5.974;2024-02-21T05:03:13;17.88;;;7.32;;
59756;SDS011;45631;51.962;5.974;2024-02-21T05:05:42;15.55;;;7.43;;
59756;SDS011;45631;51.962;5.974;2024-02-21T05:08:10;16.63;;;6.95;;
59756;SDS011;45631;51.962;5.974;2024-02-21T05:10:38;14.18;;;7.35;;
59756;SDS011;45631;51.962;5.974;2024-02-21T05:13:07;17.15;;;6.97;;
59756;SDS011;45631;51.962;5.974;2024-02-21T05:15:35;18.27;;;7.97;;
59756;SDS011;45631;51.962;5.974;2024-02-21T05:18:05;15.40;;;7.72;;
59756;SDS011;45631;51.962;5.974;2024-02-21T05:20:33;17.42;;;8.68;;
59756;SDS011;45631;51.962;5.974;2024-02-21T05:23:01;16.38;;;7.78;;
59756;SDS011;45631;51.962;5.974;2024-02-21T05:25:30;17.83;;;8.48;;
59756;SDS011;45631;51.962;5.974;2024-02-21T05:27:58;21.60;;;9.32;;
59756;SDS011;45631;51.962;5.974;2024-02-21T05:30:29;16.67;;;8.45;;
59756;SDS011;45631;51.962;5.974;2024-02-21T05:32:57;15.70;;;8.43;;
59756;SDS011;45631;51.962;5.974;2024-02-21T05:35:27;16.58;;;8.90;;
59756;SDS011;45631;51.962;5.974;2024-02-21T05:37:56;15.70;;;8.60;;
59756;SDS011;45631;51.962;5.974;2024-02-21T05:40:26;18.80;;;8.57;;
59756;SDS011;45631;51.962;5.974;2024-02-21T05:42:54;20.90;;;9.02;;
59756;SDS011;45631;51.962;5.974;2024-02-21T05:45:22;19.45;;;9.00;;
59756;SDS011;45631;51.962;5.974;2024-02-21T05:47:51;15.82;;;8.23;;
59756;SDS011;45631;51.962;5.974;2024-02-21T05:50:21;20.75;;;8.55;;
59756;SDS011;45631;51.962;5.974;2024-02-21T05:52:52;17.38;;;9.00;;
59756;SDS011;45631;51.962;5.974;2024-02-21T05:55:20;18.83;;;8.32;;
59756;SDS011;45631;51.962;5.974;2024-02-21T05:57:49;17.83;;;9.50;;
59756;SDS011;45631;51.962;5.974;2024-02-21T06:00:17;15.57;;;8.73;;
59756;SDS011;45631;51.962;5.974;2024-02-21T06:02:45;21.05;;;9.93;;
59756;SDS011;45631;51.962;5.974;2024-02-21T06:05:13;16.48;;;9.38;;
59756;SDS011;45631;51.962;5.974;2024-02-21T06:07:42;16.33;;;9.10;;
59756;SDS011;45631;51.962;5.974;2024-02-21T06:10:11;16.23;;;9.52;;
59756;SDS011;45631;51.962;5.974;2024-02-21T06:12:40;15.48;;;8.35;;
59756;SDS011;45631;51.962;5.974;2024-02-21T06:15:08;17.42;;;9.02;;
59756;SDS011;45631;51.962;5.974;2024-02-21T06:17:36;19.65;;;8.07;;
59756;SDS011;45631;51.962;5.974;2024-02-21T06:20:05;16.20;;;8.43;;
59756;SDS011;45631;51.962;5.974;2024-02-21T06:22:34;16.48;;;8.35;;
59756;SDS011;45631;51.962;5.974;2024-02-21T06:25:02;18.10;;;8.88;;
59756;SDS011;45631;51.962;5.974;2024-02-21T06:27:32;18.67;;;7.93;;
59756;SDS011;45631;51.962;5.974;2024-02-21T06:30:00;16.10;;;7.97;;
59756;SDS011;45631;51.962;5.974;2024-02-21T06:32:29;18.30;;;8.90;;
59756;SDS011;45631;51.962;5.974;2024-02-21T06:34:58;17.08;;;8.02;;
59756;SDS011;45631;51.962;5.974;2024-02-21T06:37:28;17.13;;;7.47;;
59756;SDS011;45631;51.962;5.974;2024-02-21T06:39:57;14.13;;;6.78;;
59756;SDS011;45631;51.962;5.974;2024-02-21T06:42:25;17.05;;;6.97;;
59756;SDS011;45631;51.962;5.974;2024-02-21T06:44:54;16.90;;;6.88;;
59756;SDS011;45631;51.962;5.974;2024-02-21T06:47:23;17.60;;;7.22;;
59756;SDS011;45631;51.962;5.974;2024-02-21T06:49:51;13.90;;;7.20;;
59756;SDS011;45631;51.962;5.974;2024-02-21T06:52:19;18.25;;;7.55;;
59756;SDS011;45631;51.962;5.974;2024-02-21T06:54:48;17.38;;;7.55;;
59756;SDS011;45631;51.962;5.974;2024-02-21T06:57:16;18.08;;;7.93;;
59756;SDS011;45631;51.962;5.974;2024-02-21T06:59:44;19.10;;;7.90;;
59756;SDS011;45631;51.962;5.974;2024-02-21T07:02:14;19.52;;;9.02;;
59756;SDS011;45631;51.962;5.974;2024-02-21T07:04:42;14.23;;;7.18;;
59756;SDS011;45631;51.962;5.974;2024-02-21T07:07:10;20.42;;;7.97;;
59756;SDS011;45631;51.962;5.974;2024-02-21T07:09:39;20.13;;;7.78;;
59756;SDS011;45631;51.962;5.974;2024-02-21T07:12:08;19.10;;;8.15;;
59756;SDS011;45631;51.962;5.974;2024-02-21T07:14:39;20.48;;;7.80;;
59756;SDS011;45631;51.962;5.974;2024-02-21T07:17:07;18.98;;;7.95;;
59756;SDS011;45631;51.962;5.974;2024-02-21T07:19:37;18.02;;;7.65;;
59756;SDS011;45631;51.962;5.974;2024-02-21T07:22:05;15.80;;;7.50;;
59756;SDS011;45631;51.962;5.974;2024-02-21T07:24:33;19.10;;;7.38;;
59756;SDS011;45631;51.962;5.974;2024-02-21T07:27:01;17.25;;;7.75;;
59756;SDS011;45631;51.962;5.974;2024-02-21T07:29:31;17.30;;;7.80;;
59756;SDS011;45631;51.962;5.974;2024-02-21T07:31:59;15.38;;;8.00;;
59756;SDS011;45631;51.962;5.974;2024-02-21T07:34:28;19.75;;;8.30;;
59756;SDS011;45631;51.962;5.974;2024-02-21T07:36:58;13.98;;;7.57;;
59756;SDS011;45631;51.962;5.974;2024-02-21T07:39:26;17.48;;;7.57;;
59756;SDS011;45631;51.962;5.974;2024-02-21T07:41:56;15.82;;;7.93;;
59756;SDS011;45631;51.962;5.974;2024-02-21T07:44:24;15.63;;;7.50;;
59756;SDS011;45631;51.962;5.974;2024-02-21T07:46:53;17.92;;;7.63;;
59756;SDS011;45631;51.962;5.974;2024-02-21T07:49:21;21.40;;;8.98;;
59756;SDS011;45631;51.962;5.974;2024-02-21T07:51:49;20.95;;;8.10;;
59756;SDS011;45631;51.962;5.974;2024-02-21T07:54:20;19.92;;;7.80;;
59756;SDS011;45631;51.962;5.974;2024-02-21T07:56:48;17.83;;;8.52;;
59756;SDS011;45631;51.962;5.974;2024-02-21T07:59:16;14.40;;;7.65;;
59756;SDS011;45631;51.962;5.974;2024-02-21T08:01:44;14.95;;;7.60;;
59756;SDS011;45631;51.962;5.974;2024-02-21T08:04:13;17.38;;;8.18;;
59756;SDS011;45631;51.962;5.974;2024-02-21T08:06:41;15.90;;;8.57;;
59756;SDS011;45631;51.962;5.974;2024-02-21T08:09:11;17.15;;;7.47;;
59756;SDS011;45631;51.962;5.974;2024-02-21T08:11:41;16.38;;;8.10;;
59756;SDS011;45631;51.962;5.974;2024-02-21T08:14:09;19.45;;;8.23;;
59756;SDS011;45631;51.962;5.974;2024-02-21T08:16:37;17.77;;;8.25;;
59756;SDS011;45631;51.962;5.974;2024-02-21T08:19:05;19.17;;;8.00;;
59756;SDS011;45631;51.962;5.974;2024-02-21T08:21:34;17.67;;;8.20;;
59756;SDS011;45631;51.962;5.974;2024-02-21T08:24:02;18.73;;;7.95;;
59756;SDS011;45631;51.962;5.974;2024-02-21T08:26:30;16.92;;;7.82;;
59756;SDS011;45631;51.962;5.974;2024-02-21T08:29:00;16.10;;;7.57;;
59756;SDS011;45631;51.962;5.974;2024-02-21T08:31:28;18.15;;;8.13;;
59756;SDS011;45631;51.962;5.974;2024-02-21T08:34:01;19.27;;;8.95;;
59756;SDS011;45631;51.962;5.974;2024-02-21T08:36:30;18.80;;;8.77;;
59756;SDS011;45631;51.962;5.974;2024-02-21T08:38:59;19.92;;;9.18;;
59756;SDS011;45631;51.962;5.974;2024-02-21T08:41:27;18.95;;;8.00;;
59756;SDS011;45631;51.962;5.974;2024-02-21T08:44:18;17.23;;;8.13;;
59756;SDS011;45631;51.962;5.974;2024-02-21T08:46:47;19.33;;;8.48;;
59756;SDS011;45631;51.962;5.974;2024-02-21T08:49:15;18.42;;;9.00;;
59756;SDS011;45631;51.962;5.974;2024-02-21T08:51:43;22.05;;;9.55;;
59756;SDS011;45631;51.962;5.974;2024-02-21T08:54:13;18.08;;;8.77;;
59756;SDS011;45631;51.962;5.974;2024-02-21T08:56:41;18.58;;;9.02;;
59756;SDS011;45631;51.962;5.974;2024-02-21T08:59:09;18.63;;;8.93;;
59756;SDS011;45631;51.962;5.974;2024-02-21T09:01:39;18.67;;;8.90;;
59756;SDS011;45631;51.962;5.974;2024-02-21T09:04:07;18.50;;;8.20;;
59756;SDS011;45631;51.962;5.974;2024-02-21T09:06:36;17.38;;;8.90;;
59756;SDS011;45631;51.962;5.974;2024-02-21T09:09:08;15.25;;;8.07;;
59756;SDS011;45631;51.962;5.974;2024-02-21T09:11:36;18.77;;;8.25;;
59756;SDS011;45631;51.962;5.974;2024-02-21T09:14:05;20.40;;;8.40;;
59756;SDS011;45631;51.962;5.974;2024-02-21T09:16:33;15.57;;;8.02;;
59756;SDS011;45631;51.962;5.974;2024-02-21T09:19:03;16.42;;;7.28;;
59756;SDS011;45631;51.962;5.974;2024-02-21T09:21:32;13.98;;;7.78;;
59756;SDS011;45631;51.962;5.974;2024-02-21T09:24:00;14.30;;;7.57;;
59756;SDS011;45631;51.962;5.974;2024-02-21T09:26:28;15.52;;;7.15;;
59756;SDS011;45631;51.962;5.974;2024-02-21T09:28:57;13.00;;;7.05;;
59756;SDS011;45631;51.962;5.974;2024-02-21T09:31:25;11.63;;;7.25;;
59756;SDS011;45631;51.962;5.974;2024-02-21T09:33:53;17.60;;;7.53;;
59756;SDS011;45631;51.962;5.974;2024-02-21T09:36:26;15.60;;;7.65;;
59756;SDS011;45631;51.962;5.974;2024-02-21T09:38:54;12.98;;;6.60;;
59756;SDS011;45631;51.962;5.974;2024-02-21T09:41:24;11.23;;;7.00;;
59756;SDS011;45631;51.962;5.974;2024-02-21T09:43:54;13.10;;;6.60;;
59756;SDS011;45631;51.962;5.974;2024-02-21T09:46:25;14.70;;;6.40;;
59756;SDS011;45631;51.962;5.974;2024-02-21T09:49:04;13.45;;;6.75;;
59756;SDS011;45631;51.962;5.974;2024-02-21T09:51:43;16.45;;;6.72;;
59756;SDS011;45631;51.962;5.974;2024-02-21T09:54:12;11.32;;;6.57;;
59756;SDS011;45631;51.962;5.974;2024-02-21T09:56:44;12.20;;;6.07;;
59756;SDS011;45631;51.962;5.974;2024-02-21T09:59:13;14.57;;;6.63;;
59756;SDS011;45631;51.962;5.974;2024-02-21T10:01:43;11.75;;;6.68;;
59756;SDS011;45631;51.962;5.974;2024-02-21T10:04:13;13.93;;;6.35;;
59756;SDS011;45631;51.962;5.974;2024-02-21T10:06:43;10.40;;;6.57;;
59756;SDS011;45631;51.962;5.974;2024-02-21T10:09:19;13.27;;;6.03;;
59756;SDS011;45631;51.962;5.974;2024-02-21T10:11:50;13.95;;;6.63;;
59756;SDS011;45631;51.962;5.974;2024-02-21T10:14:18;11.65;;;6.35;;
59756;SDS011;45631;51.962;5.974;2024-02-21T10:16:47;13.90;;;7.13;;
59756;SDS011;45631;51.962;5.974;2024-02-21T10:19:16;11.75;;;6.60;;
59756;SDS011;45631;51.962;5.974;2024-02-21T10:22:00;9.82;;;5.95;;
59756;SDS011;45631;51.962;5.974;2024-02-21T10:24:30;11.65;;;6.05;;
59756;SDS011;45631;51.962;5.974;2024-02-21T10:26:59;10.55;;;5.68;;
59756;SDS011;45631;51.962;5.974;2024-02-21T10:29:30;11.70;;;5.85;;
59756;SDS011;45631;51.962;5.974;2024-02-21T10:32:05;11.10;;;5.50;;
59756;SDS011;45631;51.962;5.974;2024-02-21T10:34:35;9.30;;;5.28;;
59756;SDS011;45631;51.962;5.974;2024-02-21T10:37:06;9.77;;;4.88;;
59756;SDS011;45631;51.962;5.974;2024-02-21T10:39:36;9.07;;;4.40;;
59756;SDS011;45631;51.962;5.974;2024-02-21T10:42:05;10.30;;;4.78;;
59756;SDS011;45631;51.962;5.974;2024-02-21T10:44:36;10.48;;;4.55;;
59756;SDS011;45631;51.962;5.974;2024-02-21T10:47:07;9.15;;;4.65;;
59756;SDS011;45631;51.962;5.974;2024-02-21T10:49:37;9.68;;;4.57;;
59756;SDS011;45631;51.962;5.974;2024-02-21T10:52:12;9.27;;;5.10;;
59756;SDS011;45631;51.962;5.974;2024-02-21T10:54:47;9.75;;;4.80;;
59756;SDS011;45631;51.962;5.974;2024-02-21T10:57:22;9.30;;;4.88;;
59756;SDS011;45631;51.962;5.974;2024-02-21T10:59:50;8.52;;;5.18;;
59756;SDS011;45631;51.962;5.974;2024-02-21T11:02:19;9.25;;;5.38;;
59756;SDS011;45631;51.962;5.974;2024-02-21T11:04:48;11.45;;;5.30;;
59756;SDS011;45631;51.962;5.974;2024-02-21T11:07:21;10.38;;;5.78;;
59756;SDS011;45631;51.962;5.974;2024-02-21T11:09:52;9.95;;;5.93;;
59756;SDS011;45631;51.962;5.974;2024-02-21T11:12:22;11.05;;;6.38;;
59756;SDS011;45631;51.962;5.974;2024-02-21T11:14:52;13.40;;;6.28;;
59756;SDS011;45631;51.962;5.974;2024-02-21T11:17:20;13.85;;;5.68;;
59756;SDS011;45631;51.962;5.974;2024-02-21T11:19:52;12.88;;;6.65;;
59756;SDS011;45631;51.962;5.974;2024-02-21T11:22:22;11.77;;;6.10;;
59756;SDS011;45631;51.962;5.974;2024-02-21T11:25:05;12.98;;;6.53;;
59756;SDS011;45631;51.962;5.974;2024-02-21T11:27:35;13.45;;;7.13;;
59756;SDS011;45631;51.962;5.974;2024-02-21T11:30:05;14.13;;;7.18;;
59756;SDS011;45631;51.962;5.974;2024-02-21T11:32:34;14.75;;;6.45;;
59756;SDS011;45631;51.962;5.974;2024-02-21T11:35:03;15.27;;;7.25;;
59756;SDS011;45631;51.962;5.974;2024-02-21T11:37:36;15.43;;;6.00;;
59756;SDS011;45631;51.962;5.974;2024-02-21T11:40:04;13.30;;;6.68;;
59756;SDS011;45631;51.962;5.974;2024-02-21T11:42:38;14.20;;;6.30;;
59756;SDS011;45631;51.962;5.974;2024-02-21T11:45:06;12.32;;;6.47;;
59756;SDS011;45631;51.962;5.974;2024-02-21T11:47:36;13.57;;;6.50;;
59756;SDS011;45631;51.962;5.974;2024-02-21T11:50:09;15.43;;;6.38;;
59756;SDS011;45631;51.962;5.974;2024-02-21T11:52:41;12.20;;;5.88;;
59756;SDS011;45631;51.962;5.974;2024-02-21T11:55:09;14.23;;;6.20;;
59756;SDS011;45631;51.962;5.974;2024-02-21T11:57:37;14.38;;;5.68;;
59756;SDS011;45631;51.962;5.974;2024-02-21T12:00:12;11.02;;;5.80;;
59756;SDS011;45631;51.962;5.974;2024-02-21T12:02:41;12.60;;;6.35;;
59756;SDS011;45631;51.962;5.974;2024-02-21T12:05:10;10.68;;;5.50;;
59756;SDS011;45631;51.962;5.974;2024-02-21T12:07:38;12.82;;;6.43;;
59756;SDS011;45631;51.962;5.974;2024-02-21T12:10:09;13.82;;;6.32;;
59756;SDS011;45631;51.962;5.974;2024-02-21T12:12:38;11.57;;;5.90;;
59756;SDS011;45631;51.962;5.974;2024-02-21T12:15:07;16.27;;;5.78;;
59756;SDS011;45631;51.962;5.974;2024-02-21T12:17:35;13.23;;;5.30;;
59756;SDS011;45631;51.962;5.974;2024-02-21T12:20:04;12.13;;;5.75;;
59756;SDS011;45631;51.962;5.974;2024-02-21T12:22:36;12.75;;;5.53;;
59756;SDS011;45631;51.962;5.974;2024-02-21T12:25:16;11.93;;;5.28;;
59756;SDS011;45631;51.962;5.974;2024-02-21T12:27:46;13.93;;;5.60;;
59756;SDS011;45631;51.962;5.974;2024-02-21T12:30:15;10.98;;;5.18;;
59756;SDS011;45631;51.962;5.974;2024-02-21T12:32:43;9.93;;;4.85;;
59756;SDS011;45631;51.962;5.974;2024-02-21T12:35:12;12.93;;;5.07;;
59756;SDS011;45631;51.962;5.974;2024-02-21T12:37:40;10.52;;;4.85;;
59756;SDS011;45631;51.962;5.974;2024-02-21T12:40:09;11.70;;;4.72;;
59756;SDS011;45631;51.962;5.974;2024-02-21T12:42:41;13.23;;;4.53;;
59756;SDS011;45631;51.962;5.974;2024-02-21T12:45:10;9.90;;;4.35;;
59756;SDS011;45631;51.962;5.974;2024-02-21T12:47:38;10.63;;;4.90;;
59756;SDS011;45631;51.962;5.974;2024-02-21T12:50:07;12.48;;;5.22;;
59756;SDS011;45631;51.962;5.974;2024-02-21T12:52:36;9.45;;;4.25;;
59756;SDS011;45631;51.962;5.974;2024-02-21T12:55:04;11.32;;;4.07;;
59756;SDS011;45631;51.962;5.974;2024-02-21T12:57:33;9.68;;;4.30;;
59756;SDS011;45631;51.962;5.974;2024-02-21T13:00:03;10.57;;;5.53;;
59756;SDS011;45631;51.962;5.974;2024-02-21T13:02:35;10.93;;;4.40;;
59756;SDS011;45631;51.962;5.974;2024-02-21T13:05:05;11.48;;;5.03;;
59756;SDS011;45631;51.962;5.974;2024-02-21T13:07:34;12.73;;;5.72;;
59756;SDS011;45631;51.962;5.974;2024-02-21T13:10:03;10.48;;;4.75;;
59756;SDS011;45631;51.962;5.974;2024-02-21T13:12:31;16.23;;;5.35;;
59756;SDS011;45631;51.962;5.974;2024-02-21T13:15:00;11.13;;;4.68;;
59756;SDS011;45631;51.962;5.974;2024-02-21T13:17:29;10.40;;;5.20;;
59756;SDS011;45631;51.962;5.974;2024-02-21T13:19:58;11.40;;;5.40;;
59756;SDS011;45631;51.962;5.974;2024-02-21T13:22:27;10.68;;;4.88;;
59756;SDS011;45631;51.962;5.974;2024-02-21T13:24:55;13.38;;;5.10;;
59756;SDS011;45631;51.962;5.974;2024-02-21T13:27:24;12.85;;;4.80;;
59756;SDS011;45631;51.962;5.974;2024-02-21T13:29:52;11.38;;;4.80;;
59756;SDS011;45631;51.962;5.974;2024-02-21T13:32:21;11.48;;;5.25;;
59756;SDS011;45631;51.962;5.974;2024-02-21T13:34:50;12.93;;;4.70;;
59756;SDS011;45631;51.962;5.974;2024-02-21T13:37:19;11.23;;;4.65;;
59756;SDS011;45631;51.962;5.974;2024-02-21T13:39:48;13.00;;;4.82;;
59756;SDS011;45631;51.962;5.974;2024-02-21T13:42:16;11.48;;;4.60;;
59756;SDS011;45631;51.962;5.974;2024-02-21T13:44:45;11.57;;;4.97;;
59756;SDS011;45631;51.962;5.974;2024-02-21T13:47:14;8.77;;;4.25;;
59756;SDS011;45631;51.962;5.974;2024-02-21T13:49:43;13.95;;;4.65;;
59756;SDS011;45631;51.962;5.974;2024-02-21T13:52:12;12.13;;;4.50;;
59756;SDS011;45631;51.962;5.974;2024-02-21T13:54:41;12.38;;;5.10;;
59756;SDS011;45631;51.962;5.974;2024-02-21T13:57:09;9.40;;;4.07;;
59756;SDS011;45631;51.962;5.974;2024-02-21T13:59:37;9.68;;;4.60;;
59756;SDS011;45631;51.962;5.974;2024-02-21T14:02:06;10.13;;;3.88;;
59756;SDS011;45631;51.962;5.974;2024-02-21T14:04:35;11.93;;;4.03;;
59756;SDS011;45631;51.962;5.974;2024-02-21T14:07:03;14.18;;;4.28;;
59756;SDS011;45631;51.962;5.974;2024-02-21T14:09:33;11.88;;;4.70;;
59756;SDS011;45631;51.962;5.974;2024-02-21T14:12:01;10.25;;;4.30;;
59756;SDS011;45631;51.962;5.974;2024-02-21T14:14:29;9.70;;;4.22;;
59756;SDS011;45631;51.962;5.974;2024-02-21T14:17:02;10.45;;;4.00;;
59756;SDS011;45631;51.962;5.974;2024-02-21T14:19:31;10.38;;;4.45;;
59756;SDS011;45631;51.962;5.974;2024-02-21T14:22:00;14.52;;;4.18;;
59756;SDS011;45631;51.962;5.974;2024-02-21T14:24:28;8.27;;;3.45;;
59756;SDS011;45631;51.962;5.974;2024-02-21T14:26:58;10.50;;;3.28;;
59756;SDS011;45631;51.962;5.974;2024-02-21T14:29:27;9.00;;;3.53;;
59756;SDS011;45631;51.962;5.974;2024-02-21T14:31:55;12.20;;;3.72;;
59756;SDS011;45631;51.962;5.974;2024-02-21T14:34:24;9.88;;;3.13;;
59756;SDS011;45631;51.962;5.974;2024-02-21T14:36:53;10.15;;;3.13;;
59756;SDS011;45631;51.962;5.974;2024-02-21T14:39:21;11.40;;;3.63;;
59756;SDS011;45631;51.962;5.974;2024-02-21T14:41:53;9.30;;;3.25;;
59756;SDS011;45631;51.962;5.974;2024-02-21T14:44:23;9.13;;;3.47;;
59756;SDS011;45631;51.962;5.974;2024-02-21T14:46:51;10.55;;;3.45;;
59756;SDS011;45631;51.962;5.974;2024-02-21T14:49:19;10.32;;;3.35;;